createdAt,value
2023-06-17T00:01:06.641Z,13.81
2023-06-17T00:03:33.493Z,13.84
2023-06-17T00:06:00.125Z,13.82
2023-06-17T00:08:26.629Z,13.81
2023-06-17T00:10:53.089Z,13.79
2023-06-17T00:13:19.610Z,13.79
2023-06-17T00:15:47.435Z,13.80
2023-06-17T00:18:14.765Z,13.79
2023-06-17T00:20:41.407Z,13.81
2023-06-17T00:23:09.085Z,13.79
2023-06-17T00:25:35.809Z,13.70
2023-06-17T00:28:02.258Z,13.73
2023-06-17T00:30:28.713Z,13.74
2023-06-17T00:32:55.762Z,13.72
2023-06-17T00:35:22.676Z,13.70
2023-06-17T00:37:49.483Z,13.67
2023-06-17T00:40:16.058Z,13.65
2023-06-17T00:42:42.629Z,13.67
2023-06-17T00:45:09.501Z,13.60
2023-06-17T00:47:36.171Z,13.58
2023-06-17T00:50:03.985Z,13.56
2023-06-17T00:52:42.013Z,13.56
2023-06-17T00:55:11.629Z,13.57
2023-06-17T00:57:39.566Z,13.57
2023-06-17T01:00:07.980Z,13.57
2023-06-17T01:02:34.840Z,13.61
2023-06-17T01:05:01.611Z,13.60
2023-06-17T01:08:07.333Z,13.57
2023-06-17T01:10:33.792Z,13.56
2023-06-17T01:13:04.414Z,13.58
2023-06-17T01:15:33.905Z,13.62
2023-06-17T01:18:01.469Z,13.56
2023-06-17T01:20:28.793Z,13.61
2023-06-17T01:22:56.875Z,13.61
2023-06-17T01:25:23.832Z,13.59
2023-06-17T01:27:50.572Z,13.56
2023-06-17T01:30:17.299Z,13.55
2023-06-17T01:32:43.942Z,13.55
2023-06-17T01:35:19.557Z,13.58
2023-06-17T01:37:55.412Z,13.60
2023-06-17T01:40:24.551Z,13.59
2023-06-17T01:42:54.122Z,13.58
2023-06-17T01:45:22.042Z,13.57
2023-06-17T01:47:48.952Z,13.56
2023-06-17T01:50:15.496Z,13.54
2023-06-17T01:52:42.511Z,13.51
2023-06-17T01:55:09.228Z,13.54
2023-06-17T01:57:36.883Z,13.55
2023-06-17T02:00:04.049Z,13.52
2023-06-17T02:02:30.598Z,13.50
2023-06-17T02:04:57.533Z,13.50
2023-06-17T02:07:24.098Z,13.48
2023-06-17T02:09:50.828Z,13.47
2023-06-17T02:12:19.267Z,13.49
2023-06-17T02:14:45.895Z,13.49
2023-06-17T02:17:12.428Z,13.43
2023-06-17T02:19:39.366Z,13.44
2023-06-17T02:22:06.153Z,13.41
2023-06-17T02:24:34.442Z,13.43
2023-06-17T02:27:01.189Z,13.43
2023-06-17T02:29:28.847Z,13.42
2023-06-17T02:31:55.453Z,13.40
2023-06-17T02:34:22.059Z,13.38
2023-06-17T02:36:48.580Z,13.40
2023-06-17T02:39:15.335Z,13.38
2023-06-17T02:41:42.444Z,13.37
2023-06-17T02:44:09.040Z,13.37
2023-06-17T02:46:35.841Z,13.36
2023-06-17T02:49:02.808Z,13.38
2023-06-17T02:51:29.512Z,13.38
2023-06-17T02:53:56.188Z,13.38
2023-06-17T02:56:23.201Z,13.41
2023-06-17T02:58:49.618Z,13.41
2023-06-17T03:01:16.134Z,13.43
2023-06-17T03:03:42.662Z,13.46
2023-06-17T03:06:09.832Z,13.44
2023-06-17T03:08:40.409Z,13.43
2023-06-17T03:11:07.267Z,13.45
2023-06-17T03:13:34.938Z,13.45
2023-06-17T03:16:01.657Z,13.44
2023-06-17T03:18:28.498Z,13.44
2023-06-17T03:20:55.528Z,13.45
2023-06-17T03:23:22.188Z,13.48
2023-06-17T03:25:50.341Z,13.46
2023-06-17T03:28:17.583Z,13.44
2023-06-17T03:30:44.469Z,13.46
2023-06-17T03:33:11.475Z,13.49
2023-06-17T03:35:39.345Z,13.55
2023-06-17T03:38:06.017Z,13.54
2023-06-17T03:40:33.100Z,13.51
2023-06-17T03:42:59.923Z,13.51
2023-06-17T03:45:26.434Z,13.54
2023-06-17T03:47:52.898Z,13.58
2023-06-17T03:50:19.895Z,13.58
2023-06-17T03:52:46.651Z,13.63
2023-06-17T03:55:13.797Z,13.64
2023-06-17T03:57:40.439Z,13.65
2023-06-17T04:00:07.526Z,13.68
2023-06-17T04:02:34.039Z,13.71
2023-06-17T04:05:00.601Z,13.73
2023-06-17T04:07:27.417Z,13.77
2023-06-17T04:10:05.812Z,13.78
2023-06-17T04:12:33.595Z,13.87
2023-06-17T04:15:01.142Z,13.86
2023-06-17T04:17:27.736Z,13.80
2023-06-17T04:19:54.457Z,13.80
2023-06-17T04:22:21.066Z,13.82
2023-06-17T04:24:48.651Z,13.84
2023-06-17T04:27:15.421Z,13.83
2023-06-17T04:29:42.009Z,13.82
2023-06-17T04:32:09.014Z,13.82
2023-06-17T04:34:35.573Z,13.88
2023-06-17T04:37:02.353Z,13.86
2023-06-17T04:39:29.299Z,13.93
2023-06-17T04:41:55.730Z,13.95
2023-06-17T04:44:22.546Z,13.94
2023-06-17T04:46:49.111Z,13.99
2023-06-17T04:49:16.880Z,14.01
2023-06-17T04:51:43.650Z,14.05
2023-06-17T04:54:10.216Z,14.07
2023-06-17T04:56:36.692Z,14.15
2023-06-17T04:59:03.291Z,14.19
2023-06-17T05:01:30.108Z,14.23
2023-06-17T05:03:56.697Z,14.32
2023-06-17T05:06:23.464Z,14.31
2023-06-17T05:08:50.665Z,14.46
2023-06-17T05:11:17.623Z,14.41
2023-06-17T05:13:44.436Z,14.43
2023-06-17T05:16:10.973Z,14.43
2023-06-17T05:18:37.841Z,14.43
2023-06-17T05:21:05.161Z,14.43
2023-06-17T05:23:31.714Z,14.41
2023-06-17T05:25:58.202Z,14.47
2023-06-17T05:28:24.684Z,14.51
2023-06-17T05:30:51.306Z,14.55
2023-06-17T05:33:19.023Z,14.65
2023-06-17T05:35:46.138Z,14.64
2023-06-17T05:38:12.923Z,14.72
2023-06-17T05:40:39.430Z,14.67
2023-06-17T05:43:05.967Z,14.60
2023-06-17T05:45:32.779Z,14.74
2023-06-17T05:47:59.345Z,14.75
2023-06-17T05:50:26.171Z,14.80
2023-06-17T05:52:52.831Z,14.87
2023-06-17T05:55:19.618Z,14.85
2023-06-17T05:57:46.168Z,14.76
2023-06-17T06:00:13.322Z,14.80
2023-06-17T06:02:40.048Z,14.88
2023-06-17T06:05:07.446Z,14.86
2023-06-17T06:07:34.024Z,14.99
2023-06-17T06:10:00.536Z,15.07
2023-06-17T06:12:28.657Z,15.12
2023-06-17T06:14:56.455Z,15.19
2023-06-17T06:17:23.315Z,15.27
2023-06-17T06:19:49.877Z,15.35
2023-06-17T06:22:16.443Z,15.32
2023-06-17T06:24:43.299Z,15.46
2023-06-17T06:27:09.778Z,15.61
2023-06-17T06:29:36.613Z,15.61
2023-06-17T06:32:04.518Z,15.56
2023-06-17T06:34:31.401Z,15.50
2023-06-17T06:36:57.818Z,15.56
2023-06-17T06:39:24.988Z,15.60
2023-06-17T06:41:52.014Z,15.69
2023-06-17T06:44:19.053Z,15.74
2023-06-17T06:46:46.464Z,15.88
2023-06-17T06:49:13.114Z,15.87
2023-06-17T06:51:40.522Z,15.80
2023-06-17T06:54:07.064Z,15.86
2023-06-17T06:56:33.640Z,15.80
2023-06-17T06:59:00.406Z,15.82
2023-06-17T07:01:28.032Z,15.89
2023-06-17T07:03:54.641Z,15.83
2023-06-17T07:06:21.168Z,15.81
2023-06-17T07:08:49.152Z,15.84
2023-06-17T07:11:18.279Z,15.71
2023-06-17T07:13:45.089Z,15.68
2023-06-17T07:16:14.016Z,15.69
2023-06-17T07:18:40.564Z,15.70
2023-06-17T07:21:07.419Z,15.83
2023-06-17T07:23:33.950Z,15.85
2023-06-17T07:26:00.803Z,15.83
2023-06-17T07:28:27.351Z,15.84
2023-06-17T07:30:53.887Z,15.86
2023-06-17T07:33:20.804Z,15.83
2023-06-17T07:35:48.376Z,15.87
2023-06-17T07:38:15.047Z,15.77
2023-06-17T07:40:41.539Z,15.80
2023-06-17T07:43:09.032Z,15.85
2023-06-17T07:45:35.774Z,15.85
2023-06-17T07:48:02.569Z,15.89
2023-06-17T07:50:29.721Z,15.90
2023-06-17T07:52:56.329Z,15.88
2023-06-17T07:55:22.844Z,15.81
2023-06-17T07:57:49.746Z,15.84
2023-06-17T08:00:16.744Z,15.78
2023-06-17T08:02:44.337Z,15.81
2023-06-17T08:05:11.389Z,15.81
2023-06-17T08:07:38.260Z,15.87
2023-06-17T08:10:07.356Z,15.88
2023-06-17T08:12:36.245Z,15.93
2023-06-17T08:15:03.068Z,16.04
2023-06-17T08:17:29.799Z,15.96
2023-06-17T08:19:56.875Z,15.95
2023-06-17T08:22:23.388Z,16.01
2023-06-17T08:24:49.935Z,16.04
2023-06-17T08:27:16.770Z,16.11
2023-06-17T08:29:43.659Z,16.25
2023-06-17T08:32:10.018Z,16.28
2023-06-17T08:34:36.522Z,16.28
2023-06-17T08:37:03.110Z,16.37
2023-06-17T08:39:31.689Z,16.26
2023-06-17T08:41:58.555Z,16.23
2023-06-17T08:44:26.119Z,16.37
2023-06-17T08:46:54.723Z,16.55
2023-06-17T08:49:22.523Z,16.65
2023-06-17T08:51:52.317Z,16.72
2023-06-17T08:54:20.589Z,16.92
2023-06-17T08:56:47.450Z,16.88
2023-06-17T08:59:13.834Z,16.98
2023-06-17T09:01:43.651Z,17.12
2023-06-17T09:04:10.877Z,17.05
2023-06-17T09:06:37.292Z,17.05
2023-06-17T09:09:04.558Z,17.06
2023-06-17T09:11:32.362Z,17.08
2023-06-17T09:14:01.706Z,17.06
2023-06-17T09:16:37.261Z,17.11
2023-06-17T09:19:06.217Z,17.00
2023-06-17T09:21:33.145Z,16.96
2023-06-17T09:24:00.695Z,17.06
2023-06-17T09:26:30.926Z,17.12
2023-06-17T09:29:09.007Z,17.28
2023-06-17T09:31:55.163Z,17.35
2023-06-17T09:34:22.917Z,17.33
2023-06-17T09:37:02.131Z,17.45
2023-06-17T09:39:31.245Z,17.46
2023-06-17T09:41:58.188Z,17.44
2023-06-17T09:44:25.293Z,17.40
2023-06-17T09:46:51.980Z,17.54
2023-06-17T09:49:22.176Z,17.69
2023-06-17T09:51:49.231Z,17.87
2023-06-17T09:54:16.220Z,18.05
2023-06-17T09:56:43.815Z,18.00
2023-06-17T09:59:11.184Z,18.01
2023-06-17T10:01:37.798Z,17.98
2023-06-17T10:04:04.597Z,17.92
2023-06-17T10:06:32.404Z,17.76
2023-06-17T10:08:59.679Z,17.74
2023-06-17T10:11:28.607Z,17.66
2023-06-17T10:14:03.471Z,17.73
2023-06-17T10:16:35.164Z,17.89
2023-06-17T10:19:05.071Z,18.01
2023-06-17T10:21:35.120Z,18.17
2023-06-17T10:24:03.843Z,18.29
2023-06-17T10:26:30.502Z,18.39
2023-06-17T10:29:05.212Z,18.34
2023-06-17T10:31:33.732Z,18.49
2023-06-17T10:34:03.554Z,18.66
2023-06-17T10:36:33.477Z,18.51
2023-06-17T10:39:10.116Z,18.91
2023-06-17T10:41:39.735Z,19.03
2023-06-17T10:44:21.241Z,19.04
2023-06-17T10:46:51.228Z,19.35
2023-06-17T10:49:18.789Z,19.25
2023-06-17T10:51:57.825Z,19.52
2023-06-17T10:54:32.639Z,19.84
2023-06-17T10:57:02.453Z,19.75
2023-06-17T10:59:30.886Z,19.96
2023-06-17T11:02:08.574Z,20.25
2023-06-17T11:04:36.528Z,20.07
2023-06-17T11:07:03.995Z,20.34
2023-06-17T11:09:31.317Z,20.78
2023-06-17T11:11:58.882Z,20.95
2023-06-17T11:14:33.985Z,21.23
2023-06-17T11:17:00.835Z,21.57
2023-06-17T11:19:27.718Z,21.61
2023-06-17T11:21:58.656Z,21.82
2023-06-17T11:24:26.961Z,22.12
2023-06-17T11:26:54.041Z,22.69
2023-06-17T11:29:21.052Z,22.77
2023-06-17T11:31:47.904Z,22.47
2023-06-17T11:34:14.638Z,22.95
2023-06-17T11:36:42.836Z,23.45
2023-06-17T11:39:09.492Z,23.21
2023-06-17T11:41:37.494Z,22.96
2023-06-17T11:44:04.545Z,23.13
2023-06-17T11:46:31.356Z,23.01
2023-06-17T11:48:58.284Z,22.86
2023-06-17T11:51:24.901Z,23.02
2023-06-17T11:53:51.303Z,22.64
2023-06-17T11:56:19.607Z,22.11
2023-06-17T11:58:46.358Z,21.95
2023-06-17T12:01:14.644Z,21.28
2023-06-17T12:03:48.077Z,20.78
2023-06-17T12:06:19.436Z,20.53
2023-06-17T12:08:46.196Z,20.46
2023-06-17T12:11:29.870Z,20.17
2023-06-17T12:13:56.765Z,19.78
2023-06-17T12:16:34.664Z,19.64
2023-06-17T12:19:03.190Z,19.62
2023-06-17T12:21:30.299Z,19.39
2023-06-17T12:23:57.930Z,19.34
2023-06-17T12:26:25.254Z,19.30
2023-06-17T12:28:52.613Z,19.32
2023-06-17T12:31:23.132Z,19.45
2023-06-17T12:33:50.318Z,19.45
2023-06-17T12:36:17.634Z,19.25
2023-06-17T12:38:45.758Z,19.15
2023-06-17T12:41:12.252Z,19.21
2023-06-17T12:43:39.011Z,19.12
2023-06-17T12:46:06.158Z,18.99
2023-06-17T12:48:34.561Z,19.05
2023-06-17T12:51:01.475Z,19.08
2023-06-17T12:53:28.995Z,19.02
2023-06-17T12:55:56.566Z,19.04
2023-06-17T12:58:23.799Z,19.22
2023-06-17T13:00:50.361Z,19.13
2023-06-17T13:03:17.164Z,19.02
2023-06-17T13:05:43.787Z,18.92
2023-06-17T13:08:10.881Z,18.76
2023-06-17T13:10:37.467Z,18.73
2023-06-17T13:13:04.130Z,18.76
2023-06-17T13:15:30.798Z,18.82
2023-06-17T13:17:57.703Z,18.82
2023-06-17T13:20:25.108Z,18.71
2023-06-17T13:22:52.209Z,18.75
2023-06-17T13:25:18.786Z,18.61
2023-06-17T13:27:45.306Z,18.50
2023-06-17T13:30:12.645Z,18.54
2023-06-17T13:32:40.361Z,18.40
2023-06-17T13:35:07.608Z,18.56
2023-06-17T13:37:34.283Z,18.84
2023-06-17T13:40:00.988Z,19.26
2023-06-17T13:42:27.634Z,19.51
2023-06-17T13:44:54.337Z,19.79
2023-06-17T13:47:20.954Z,20.12
2023-06-17T13:49:47.552Z,20.37
2023-06-17T13:52:14.176Z,20.23
2023-06-17T13:54:40.772Z,20.42
2023-06-17T13:57:07.848Z,20.49
2023-06-17T13:59:36.059Z,20.24
2023-06-17T14:02:04.425Z,20.25
2023-06-17T14:04:31.045Z,20.04
2023-06-17T14:06:57.784Z,20.01
2023-06-17T14:09:24.423Z,19.93
2023-06-17T14:11:50.945Z,19.93
2023-06-17T14:14:17.635Z,20.02
2023-06-17T14:16:44.613Z,20.29
2023-06-17T14:19:11.713Z,19.92
2023-06-17T14:21:38.507Z,20.01
2023-06-17T14:24:09.515Z,20.00
2023-06-17T14:26:40.555Z,19.94
2023-06-17T14:29:09.442Z,20.03
2023-06-17T14:31:36.794Z,19.87
2023-06-17T14:34:03.764Z,20.00
2023-06-17T14:36:31.360Z,20.13
2023-06-17T14:39:00.126Z,20.05
2023-06-17T14:41:26.791Z,20.09
2023-06-17T14:43:53.204Z,20.20
2023-06-17T14:46:20.616Z,20.28
2023-06-17T14:48:47.355Z,20.44
2023-06-17T14:51:13.875Z,20.57
2023-06-17T14:53:40.438Z,20.50
2023-06-17T14:56:39.644Z,20.50
2023-06-17T14:59:07.279Z,20.35
2023-06-17T15:01:35.356Z,20.54
2023-06-17T15:04:02.236Z,20.65
2023-06-17T15:06:29.229Z,20.80
2023-06-17T15:09:23.384Z,20.94
2023-06-17T15:11:50.009Z,21.16
2023-06-17T15:14:16.500Z,21.36
2023-06-17T15:16:43.026Z,21.66
2023-06-17T15:19:09.794Z,21.88
2023-06-17T15:21:36.149Z,22.30
2023-06-17T15:24:03.119Z,22.19
2023-06-17T15:26:29.628Z,22.31
2023-06-17T15:28:56.150Z,22.46
2023-06-17T15:31:22.674Z,22.63
2023-06-17T15:33:49.182Z,22.93
2023-06-17T15:36:15.869Z,22.70
2023-06-17T15:38:42.574Z,22.88
2023-06-17T15:41:09.103Z,23.02
2023-06-17T15:43:35.456Z,22.68
2023-06-17T15:46:02.299Z,22.94
2023-06-17T15:48:29.143Z,22.92
2023-06-17T15:50:58.321Z,22.75
2023-06-17T15:53:24.790Z,22.50
2023-06-17T15:55:51.576Z,22.91
2023-06-17T15:58:18.355Z,22.85
2023-06-17T16:00:45.221Z,22.77
2023-06-17T16:03:13.079Z,22.90
2023-06-17T16:05:39.934Z,22.97
2023-06-17T16:08:06.567Z,22.94
2023-06-17T16:10:33.861Z,23.05
2023-06-17T16:13:00.336Z,23.19
2023-06-17T16:15:26.874Z,23.04
2023-06-17T16:17:53.251Z,23.11
2023-06-17T16:20:20.218Z,23.10
2023-06-17T16:22:48.358Z,22.80
2023-06-17T16:25:15.221Z,22.85
2023-06-17T16:27:41.727Z,22.78
2023-06-17T16:30:09.215Z,22.79
2023-06-17T16:32:35.870Z,22.68
2023-06-17T16:35:02.377Z,22.55
2023-06-17T16:37:28.926Z,22.39
2023-06-17T16:39:55.930Z,22.28
2023-06-17T16:42:22.461Z,22.16
2023-06-17T16:44:49.295Z,22.06
2023-06-17T16:47:16.981Z,22.05
2023-06-17T16:49:44.030Z,21.97
2023-06-17T16:52:10.861Z,21.89
2023-06-17T16:54:37.551Z,21.88
2023-06-17T16:57:05.383Z,21.74
2023-06-17T16:59:37.913Z,21.62
2023-06-17T17:02:05.780Z,21.43
2023-06-17T17:04:32.343Z,21.57
2023-06-17T17:06:59.666Z,21.46
2023-06-17T17:09:26.987Z,21.23
2023-06-17T17:11:54.096Z,21.32
2023-06-17T17:14:20.604Z,21.51
2023-06-17T17:16:47.492Z,21.45
2023-06-17T17:19:14.343Z,21.26
2023-06-17T17:21:41.005Z,21.37
2023-06-17T17:24:07.591Z,21.46
2023-06-17T17:26:34.237Z,21.31
2023-06-17T17:29:00.713Z,21.21
2023-06-17T17:31:27.297Z,21.18
2023-06-17T17:33:53.741Z,21.26
2023-06-17T17:36:20.560Z,21.11
2023-06-17T17:38:47.110Z,21.17
2023-06-17T17:41:13.748Z,21.01
2023-06-17T17:43:40.330Z,20.99
2023-06-17T17:46:07.941Z,20.97
2023-06-17T17:48:35.216Z,20.87
2023-06-17T17:51:02.316Z,20.87
2023-06-17T17:53:29.272Z,20.83
2023-06-17T17:55:56.261Z,20.80
2023-06-17T17:58:22.854Z,20.67
2023-06-17T18:00:49.315Z,20.68
2023-06-17T18:03:16.296Z,20.57
2023-06-17T18:05:42.890Z,20.53
2023-06-17T18:08:09.653Z,20.44
2023-06-17T18:10:36.578Z,20.39
2023-06-17T18:13:03.453Z,20.27
2023-06-17T18:15:29.952Z,20.23
2023-06-17T18:17:56.537Z,20.12
2023-06-17T18:20:23.517Z,20.05
2023-06-17T18:22:50.619Z,20.02
2023-06-17T18:25:17.517Z,19.96
2023-06-17T18:27:44.359Z,19.90
2023-06-17T18:30:11.625Z,19.75
2023-06-17T18:32:38.478Z,19.67
2023-06-17T18:35:05.505Z,19.59
2023-06-17T18:37:32.056Z,19.53
2023-06-17T18:39:58.891Z,19.41
2023-06-17T18:42:25.700Z,19.31
2023-06-17T18:44:52.160Z,19.28
2023-06-17T18:47:18.698Z,19.27
2023-06-17T18:49:45.214Z,19.19
2023-06-17T18:52:11.895Z,19.11
2023-06-17T18:54:38.342Z,18.99
2023-06-17T18:57:05.412Z,18.89
2023-06-17T18:59:32.405Z,18.77
2023-06-17T19:01:59.295Z,18.71
2023-06-17T19:04:25.989Z,18.55
2023-06-17T19:06:52.848Z,18.51
2023-06-17T19:09:19.413Z,18.50
2023-06-17T19:11:46.289Z,18.35
2023-06-17T19:14:12.721Z,18.22
2023-06-17T19:16:39.544Z,18.20
2023-06-17T19:19:06.199Z,18.11
2023-06-17T19:21:33.306Z,18.05
2023-06-17T19:23:59.865Z,17.99
2023-06-17T19:26:26.645Z,17.87
2023-06-17T19:28:53.887Z,17.71
2023-06-17T19:31:20.727Z,17.66
2023-06-17T19:33:47.467Z,17.62
2023-06-17T19:36:14.026Z,17.54
2023-06-17T19:38:40.502Z,17.43
2023-06-17T19:41:07.044Z,17.44
2023-06-17T19:43:33.815Z,17.42
2023-06-17T19:46:01.142Z,17.35
2023-06-17T19:48:27.807Z,17.19
2023-06-17T19:50:55.566Z,17.09
2023-06-17T19:53:24.048Z,16.99
2023-06-17T19:55:51.411Z,16.96
2023-06-17T19:58:18.667Z,16.93
2023-06-17T20:00:48.257Z,16.84
2023-06-17T20:03:14.976Z,16.79
2023-06-17T20:05:41.461Z,16.70
2023-06-17T20:08:08.469Z,16.71
2023-06-17T20:10:35.007Z,16.65
2023-06-17T20:13:03.696Z,16.54
2023-06-17T20:15:30.180Z,16.46
2023-06-17T20:17:57.083Z,16.41
2023-06-17T20:20:23.802Z,16.42
2023-06-17T20:22:50.954Z,16.41
2023-06-17T20:25:17.719Z,16.38
2023-06-17T20:27:44.246Z,16.27
2023-06-17T20:30:14.143Z,16.26
2023-06-17T20:32:42.026Z,16.20
2023-06-17T20:35:09.201Z,16.10
2023-06-17T20:37:35.702Z,16.04
2023-06-17T20:40:02.455Z,15.98
2023-06-17T20:42:28.949Z,16.01
2023-06-17T20:44:55.716Z,15.97
2023-06-17T20:47:22.826Z,15.93
2023-06-17T20:49:49.805Z,15.86
2023-06-17T20:52:16.318Z,15.80
2023-06-17T20:54:43.083Z,15.74
2023-06-17T20:57:09.931Z,15.71
2023-06-17T20:59:36.787Z,15.66
2023-06-17T21:02:03.640Z,15.61
2023-06-17T21:04:30.222Z,15.56
2023-06-17T21:06:57.109Z,15.51
2023-06-17T21:09:24.449Z,15.45
2023-06-17T21:11:50.975Z,15.42
2023-06-17T21:14:17.820Z,15.38
2023-06-17T21:16:44.539Z,15.35
2023-06-17T21:19:11.541Z,15.31
2023-06-17T21:21:38.272Z,15.28
2023-06-17T21:24:05.138Z,15.27
2023-06-17T21:26:31.792Z,15.24
2023-06-17T21:28:59.008Z,15.19
2023-06-17T21:31:25.640Z,15.18
2023-06-17T21:33:52.494Z,15.12
2023-06-17T21:36:19.064Z,15.05
2023-06-17T21:38:45.656Z,15.02
2023-06-17T21:41:12.397Z,14.99
2023-06-17T21:43:39.143Z,14.98
2023-06-17T21:46:06.080Z,14.89
2023-06-17T21:48:32.771Z,14.87
2023-06-17T21:50:59.421Z,14.83
2023-06-17T21:53:26.004Z,14.75
2023-06-17T21:55:54.164Z,14.70
2023-06-17T21:58:20.658Z,14.69
2023-06-17T22:00:47.225Z,14.67
2023-06-17T22:03:14.116Z,14.62
2023-06-17T22:05:41.053Z,14.58
2023-06-17T22:08:09.614Z,14.55
2023-06-17T22:10:36.529Z,14.55
2023-06-17T22:13:03.006Z,14.55
2023-06-17T22:15:29.885Z,14.55
2023-06-17T22:17:56.620Z,14.52
2023-06-17T22:20:23.704Z,14.49
2023-06-17T22:22:50.673Z,14.47
2023-06-17T22:25:17.617Z,14.39
2023-06-17T22:27:44.228Z,14.35
2023-06-17T22:30:11.063Z,14.29
2023-06-17T22:32:37.671Z,14.27
2023-06-17T22:35:05.239Z,14.25
2023-06-17T22:37:32.055Z,14.21
2023-06-17T22:39:59.807Z,14.17
2023-06-17T22:42:27.150Z,14.15
2023-06-17T22:44:54.086Z,14.11
2023-06-17T22:47:23.411Z,14.04
2023-06-17T22:49:50.209Z,14.04
2023-06-17T22:52:16.966Z,14.03
2023-06-17T22:54:43.687Z,13.96
2023-06-17T22:57:10.255Z,13.91
2023-06-17T22:59:37.003Z,13.88
2023-06-17T23:02:05.767Z,13.90
2023-06-17T23:04:32.600Z,13.89
2023-06-17T23:07:00.173Z,13.83
2023-06-17T23:09:27.008Z,13.81
2023-06-17T23:11:54.149Z,13.74
2023-06-17T23:14:20.913Z,13.69
2023-06-17T23:16:47.771Z,13.68
2023-06-17T23:19:14.671Z,13.68
2023-06-17T23:21:41.200Z,13.64
2023-06-17T23:24:08.442Z,13.64
2023-06-17T23:26:34.985Z,13.59
2023-06-17T23:29:01.960Z,13.57
2023-06-17T23:31:28.780Z,13.55
2023-06-17T23:33:55.757Z,13.51
2023-06-17T23:36:22.777Z,13.49
2023-06-17T23:38:49.617Z,13.48
2023-06-17T23:41:16.939Z,13.44
2023-06-17T23:43:43.712Z,13.44
2023-06-17T23:46:10.283Z,13.36
2023-06-17T23:48:36.835Z,13.36
2023-06-17T23:51:05.740Z,13.33
2023-06-17T23:53:32.615Z,13.29
2023-06-17T23:55:59.151Z,13.27
2023-06-17T23:58:25.996Z,13.25
